createdAt,value
2019-03-27T00:00:22.747Z,1008.31
2019-03-27T00:01:22.742Z,1008.30
2019-03-27T00:02:22.720Z,1008.31
2019-03-27T00:03:22.746Z,1008.34
2019-03-27T00:04:22.709Z,1008.34
2019-03-27T00:05:22.707Z,1008.38
2019-03-27T00:06:22.675Z,1008.36
2019-03-27T00:07:22.689Z,1008.36
2019-03-27T00:08:22.683Z,1008.32
2019-03-27T00:09:22.672Z,1008.34
2019-03-27T00:10:22.662Z,1008.27
2019-03-27T00:11:22.654Z,1008.26
2019-03-27T00:12:22.617Z,1008.27
2019-03-27T00:13:22.644Z,1008.26
2019-03-27T00:14:22.605Z,1008.28
2019-03-27T00:15:22.587Z,1008.24
2019-03-27T00:16:22.590Z,1008.27
2019-03-27T00:17:22.562Z,1008.22
2019-03-27T00:18:22.608Z,1008.21
2019-03-27T00:19:22.552Z,1008.20
2019-03-27T00:20:22.540Z,1008.19
2019-03-27T00:21:22.527Z,1008.20
2019-03-27T00:22:22.523Z,1008.23
2019-03-27T00:23:22.539Z,1008.12
2019-03-27T00:24:22.494Z,1008.21
2019-03-27T00:25:22.484Z,1008.14
2019-03-27T00:26:23.198Z,1008.19
2019-03-27T00:27:22.467Z,1008.13
2019-03-27T00:28:22.474Z,1008.19
2019-03-27T00:29:22.449Z,1008.15
2019-03-27T00:30:22.425Z,1008.14
2019-03-27T00:31:22.420Z,1008.11
2019-03-27T00:32:22.398Z,1008.13
2019-03-27T00:33:22.425Z,1008.14
2019-03-27T00:34:22.407Z,1008.09
2019-03-27T00:35:22.377Z,1008.15
2019-03-27T00:36:22.361Z,1008.18
2019-03-27T00:37:22.359Z,1008.17
2019-03-27T00:38:22.429Z,1008.13
2019-03-27T00:39:22.340Z,1008.09
2019-03-27T00:40:22.353Z,1008.11
2019-03-27T00:41:22.306Z,1008.10
2019-03-27T00:42:22.299Z,1008.13
2019-03-27T00:43:22.317Z,1008.12
2019-03-27T00:44:22.276Z,1008.12
2019-03-27T00:45:26.945Z,1008.17
2019-03-27T00:46:22.259Z,1008.16
2019-03-27T00:47:22.251Z,1008.13
2019-03-27T00:48:22.237Z,1008.14
2019-03-27T00:49:22.741Z,1008.13
2019-03-27T00:50:22.227Z,1008.14
2019-03-27T00:51:22.207Z,1008.07
2019-03-27T00:52:22.199Z,1008.12
2019-03-27T00:53:22.174Z,1008.10
2019-03-27T00:54:22.186Z,1008.16
2019-03-27T00:55:22.151Z,1008.13
2019-03-27T00:56:22.148Z,1008.16
2019-03-27T00:57:22.171Z,1008.12
2019-03-27T00:58:22.127Z,1008.08
2019-03-27T00:59:22.132Z,1008.10
2019-03-27T01:00:22.102Z,1008.12
2019-03-27T01:01:22.091Z,1008.13
2019-03-27T01:02:22.086Z,1008.11
2019-03-27T01:03:22.074Z,1008.10
2019-03-27T01:04:22.074Z,1008.12
2019-03-27T01:05:22.081Z,1008.09
2019-03-27T01:06:22.046Z,1008.12
2019-03-27T01:07:22.029Z,1008.08
2019-03-27T01:08:22.018Z,1008.07
2019-03-27T01:09:22.030Z,1008.02
2019-03-27T01:10:21.992Z,1008.00
2019-03-27T01:11:21.978Z,1008.04
2019-03-27T01:12:21.973Z,1007.99
2019-03-27T01:13:21.961Z,1007.99
2019-03-27T01:14:21.957Z,1008.02
2019-03-27T01:15:21.947Z,1008.05
2019-03-27T01:16:21.930Z,1008.08
2019-03-27T01:17:21.928Z,1008.09
2019-03-27T01:18:21.898Z,1008.14
2019-03-27T01:19:21.926Z,1008.08
2019-03-27T01:20:21.881Z,1008.09
2019-03-27T01:21:21.879Z,1008.12
2019-03-27T01:22:21.859Z,1008.09
2019-03-27T01:23:21.845Z,1008.11
2019-03-27T01:24:21.862Z,1008.06
2019-03-27T01:25:21.843Z,1008.04
2019-03-27T01:26:21.819Z,1008.09
2019-03-27T01:27:21.798Z,1008.09
2019-03-27T01:28:21.800Z,1008.13
2019-03-27T01:29:21.812Z,1008.10
2019-03-27T01:30:21.763Z,1008.12
2019-03-27T01:31:21.757Z,1008.11
2019-03-27T01:32:21.748Z,1008.11
2019-03-27T01:33:21.739Z,1008.11
2019-03-27T01:34:21.759Z,1008.04
2019-03-27T01:35:21.716Z,1008.02
2019-03-27T01:36:21.704Z,1007.96
2019-03-27T01:37:21.686Z,1007.99
2019-03-27T01:38:21.694Z,1007.95
2019-03-27T01:39:21.703Z,1007.95
2019-03-27T01:40:21.669Z,1007.99
2019-03-27T01:41:21.650Z,1007.98
2019-03-27T01:42:21.647Z,1007.96
2019-03-27T01:43:21.637Z,1007.99
2019-03-27T01:44:21.640Z,1007.97
2019-03-27T01:45:21.623Z,1008.00
2019-03-27T01:46:21.612Z,1008.00
2019-03-27T01:47:21.583Z,1008.02
2019-03-27T01:48:21.580Z,1008.05
2019-03-27T01:49:21.597Z,1008.00
2019-03-27T01:50:21.554Z,1008.01
2019-03-27T01:51:21.547Z,1008.07
2019-03-27T01:52:21.594Z,1008.06
2019-03-27T01:53:21.523Z,1008.07
2019-03-27T01:54:21.579Z,1008.08
2019-03-27T01:55:21.497Z,1008.08
2019-03-27T01:56:21.492Z,1008.05
2019-03-27T01:57:21.476Z,1008.08
2019-03-27T01:58:21.459Z,1008.05
2019-03-27T01:59:21.480Z,1008.07
2019-03-27T02:00:21.447Z,1008.08
2019-03-27T02:01:21.432Z,1008.08
2019-03-27T02:02:21.420Z,1008.10
2019-03-27T02:03:21.422Z,1008.11
2019-03-27T02:04:21.436Z,1008.06
2019-03-27T02:05:21.391Z,1008.06
2019-03-27T02:06:21.378Z,1007.98
2019-03-27T02:07:21.398Z,1008.05
2019-03-27T02:08:21.371Z,1008.03
2019-03-27T02:09:21.390Z,1007.95
2019-03-27T02:10:21.338Z,1007.98
2019-03-27T02:11:21.314Z,1008.02
2019-03-27T02:12:21.304Z,1008.00
2019-03-27T02:13:21.319Z,1008.06
2019-03-27T02:14:21.316Z,1008.03
2019-03-27T02:15:21.279Z,1008.02
2019-03-27T02:16:21.275Z,1008.10
2019-03-27T02:17:21.253Z,1008.04
2019-03-27T02:18:21.239Z,1008.08
2019-03-27T02:19:21.273Z,1008.05
2019-03-27T02:20:21.235Z,1008.00
2019-03-27T02:21:21.205Z,1008.03
2019-03-27T02:22:21.212Z,1008.07
2019-03-27T02:23:21.197Z,1007.97
2019-03-27T02:24:21.208Z,1008.02
2019-03-27T02:25:21.170Z,1008.05
2019-03-27T02:26:21.170Z,1008.04
2019-03-27T02:27:21.164Z,1008.08
2019-03-27T02:28:21.136Z,1008.08
2019-03-27T02:29:21.148Z,1008.12
2019-03-27T02:30:21.108Z,1008.10
2019-03-27T02:31:21.108Z,1008.13
2019-03-27T02:32:21.193Z,1008.14
2019-03-27T02:33:21.090Z,1008.18
2019-03-27T02:34:21.099Z,1008.23
2019-03-27T02:35:21.058Z,1008.17
2019-03-27T02:36:21.069Z,1008.23
2019-03-27T02:37:21.034Z,1008.19
2019-03-27T02:38:21.214Z,1008.27
2019-03-27T02:39:21.073Z,1008.20
2019-03-27T02:40:21.007Z,1008.23
2019-03-27T02:41:21.000Z,1008.28
2019-03-27T02:42:20.973Z,1008.24
2019-03-27T02:43:20.999Z,1008.20
2019-03-27T02:44:20.994Z,1008.26
2019-03-27T02:45:20.944Z,1008.23
2019-03-27T02:46:25.238Z,1008.25
2019-03-27T02:47:20.920Z,1008.31
2019-03-27T02:48:20.928Z,1008.30
2019-03-27T02:49:20.919Z,1008.24
2019-03-27T02:50:20.890Z,1008.21
2019-03-27T02:51:20.883Z,1008.24
2019-03-27T02:52:20.875Z,1008.24
2019-03-27T02:53:20.865Z,1008.24
2019-03-27T02:54:20.887Z,1008.22
2019-03-27T02:55:20.872Z,1008.31
2019-03-27T02:56:20.826Z,1008.22
2019-03-27T02:57:20.818Z,1008.16
2019-03-27T02:58:20.803Z,1008.13
2019-03-27T02:59:20.833Z,1008.16
2019-03-27T03:00:20.800Z,1008.14
2019-03-27T03:01:20.782Z,1008.19
2019-03-27T03:02:20.771Z,1008.17
2019-03-27T03:03:20.770Z,1008.18
2019-03-27T03:04:20.768Z,1008.17
2019-03-27T03:05:21.730Z,1008.17
2019-03-27T03:06:20.733Z,1008.16
2019-03-27T03:07:20.700Z,1008.19
2019-03-27T03:08:20.702Z,1008.16
2019-03-27T03:09:20.724Z,1008.13
2019-03-27T03:10:20.678Z,1008.17
2019-03-27T03:11:21.183Z,1008.18
2019-03-27T03:12:20.681Z,1008.13
2019-03-27T03:13:20.648Z,1008.10
2019-03-27T03:14:20.629Z,1008.12
2019-03-27T03:15:20.661Z,1008.12
2019-03-27T03:16:20.615Z,1008.12
2019-03-27T03:17:20.600Z,1008.14
2019-03-27T03:18:20.589Z,1008.12
2019-03-27T03:19:20.591Z,1008.10
2019-03-27T03:20:20.587Z,1008.08
2019-03-27T03:21:20.554Z,1008.05
2019-03-27T03:22:20.555Z,1008.07
2019-03-27T03:23:20.565Z,1008.06
2019-03-27T03:24:20.567Z,1008.08
2019-03-27T03:25:20.550Z,1008.04
2019-03-27T03:26:20.541Z,1008.06
2019-03-27T03:27:20.491Z,1008.10
2019-03-27T03:28:20.491Z,1008.05
2019-03-27T03:29:20.480Z,1008.00
2019-03-27T03:30:20.487Z,1008.01
2019-03-27T03:31:20.455Z,1008.04
2019-03-27T03:32:20.449Z,1008.03
2019-03-27T03:33:20.430Z,1008.01
2019-03-27T03:34:20.421Z,1007.99
2019-03-27T03:35:20.438Z,1008.00
2019-03-27T03:36:20.402Z,1008.01
2019-03-27T03:37:20.392Z,1007.98
2019-03-27T03:38:20.367Z,1008.00
2019-03-27T03:39:20.358Z,1007.90
2019-03-27T03:40:20.395Z,1008.00
2019-03-27T03:41:20.338Z,1007.92
2019-03-27T03:42:20.358Z,1007.92
2019-03-27T03:43:20.321Z,1007.94
2019-03-27T03:44:20.304Z,1008.04
2019-03-27T03:45:20.317Z,1008.00
2019-03-27T03:46:20.287Z,1008.05
2019-03-27T03:47:20.280Z,1008.08
2019-03-27T03:48:20.267Z,1008.09
2019-03-27T03:49:20.265Z,1008.12
2019-03-27T03:50:20.261Z,1008.11
2019-03-27T03:51:20.236Z,1008.12
2019-03-27T03:52:20.220Z,1008.14
2019-03-27T03:53:20.211Z,1008.08
2019-03-27T03:54:20.215Z,1008.07
2019-03-27T03:55:20.211Z,1008.10
2019-03-27T03:56:20.176Z,1008.08
2019-03-27T03:57:20.164Z,1008.08
2019-03-27T03:58:20.184Z,1008.07
2019-03-27T03:59:20.148Z,1008.13
2019-03-27T04:00:20.161Z,1008.12
2019-03-27T04:01:20.124Z,1008.08
2019-03-27T04:02:20.113Z,1008.13
2019-03-27T04:03:20.119Z,1008.11
2019-03-27T04:04:20.081Z,1008.11
2019-03-27T04:05:20.117Z,1008.20
2019-03-27T04:06:20.060Z,1008.21
2019-03-27T04:07:20.064Z,1008.24
2019-03-27T04:08:20.036Z,1008.17
2019-03-27T04:09:20.037Z,1008.22
2019-03-27T04:10:20.060Z,1008.19
2019-03-27T04:11:20.087Z,1008.24
2019-03-27T04:12:19.999Z,1008.26
2019-03-27T04:13:19.990Z,1008.25
2019-03-27T04:14:19.994Z,1008.32
2019-03-27T04:15:20.005Z,1008.28
2019-03-27T04:16:19.970Z,1008.32
2019-03-27T04:17:19.957Z,1008.31
2019-03-27T04:18:19.942Z,1008.34
2019-03-27T04:19:19.924Z,1008.25
2019-03-27T04:20:19.927Z,1008.33
2019-03-27T04:21:19.911Z,1008.31
2019-03-27T04:22:19.928Z,1008.30
2019-03-27T04:23:19.899Z,1008.37
2019-03-27T04:24:19.861Z,1008.37
2019-03-27T04:25:19.878Z,1008.41
2019-03-27T04:26:19.857Z,1008.32
2019-03-27T04:27:19.841Z,1008.38
2019-03-27T04:28:19.855Z,1008.38
2019-03-27T04:29:19.837Z,1008.42
2019-03-27T04:30:19.853Z,1008.40
2019-03-27T04:31:19.801Z,1008.38
2019-03-27T04:32:19.794Z,1008.42
2019-03-27T04:33:19.772Z,1008.42
2019-03-27T04:34:19.756Z,1008.44
2019-03-27T04:35:19.764Z,1008.47
2019-03-27T04:36:19.737Z,1008.41
2019-03-27T04:37:19.718Z,1008.42
2019-03-27T04:38:19.722Z,1008.41
2019-03-27T04:39:19.714Z,1008.43
2019-03-27T04:40:19.712Z,1008.47
2019-03-27T04:41:19.683Z,1008.50
2019-03-27T04:42:19.668Z,1008.49
2019-03-27T04:43:19.658Z,1008.54
2019-03-27T04:44:19.657Z,1008.53
2019-03-27T04:45:19.651Z,1008.51
2019-03-27T04:46:19.620Z,1008.52
2019-03-27T04:47:31.541Z,1008.49
2019-03-27T04:48:20.596Z,1008.47
2019-03-27T04:49:19.591Z,1008.50
2019-03-27T04:50:19.614Z,1008.48
2019-03-27T04:51:19.574Z,1008.46
2019-03-27T04:52:19.572Z,1008.49
2019-03-27T04:53:19.539Z,1008.56
2019-03-27T04:54:19.526Z,1008.53
2019-03-27T04:55:19.542Z,1008.52
2019-03-27T04:56:19.515Z,1008.56
2019-03-27T04:57:19.507Z,1008.56
2019-03-27T04:58:19.484Z,1008.58
2019-03-27T04:59:19.489Z,1008.64
2019-03-27T05:00:19.502Z,1008.67
2019-03-27T05:01:19.445Z,1008.62
2019-03-27T05:02:19.451Z,1008.65
2019-03-27T05:03:19.437Z,1008.68
2019-03-27T05:04:19.426Z,1008.68
2019-03-27T05:05:19.435Z,1008.71
2019-03-27T05:06:19.401Z,1008.66
2019-03-27T05:07:19.390Z,1008.74
2019-03-27T05:08:19.402Z,1008.69
2019-03-27T05:09:19.373Z,1008.70
2019-03-27T05:10:19.386Z,1008.74
2019-03-27T05:11:19.342Z,1008.75
2019-03-27T05:12:19.334Z,1008.75
2019-03-27T05:13:19.336Z,1008.79
2019-03-27T05:14:19.312Z,1008.84
2019-03-27T05:15:19.370Z,1008.75
2019-03-27T05:16:19.309Z,1008.85
2019-03-27T05:17:19.288Z,1008.88
2019-03-27T05:18:19.271Z,1008.80
2019-03-27T05:19:19.265Z,1008.77
2019-03-27T05:20:19.261Z,1008.84
2019-03-27T05:21:19.250Z,1008.82
2019-03-27T05:22:19.223Z,1008.80
2019-03-27T05:23:19.229Z,1008.86
2019-03-27T05:24:19.198Z,1008.83
2019-03-27T05:25:19.187Z,1008.85
2019-03-27T05:26:19.212Z,1008.79
2019-03-27T05:27:19.187Z,1008.86
2019-03-27T05:28:19.164Z,1008.84
2019-03-27T05:29:19.142Z,1008.83
2019-03-27T05:30:19.132Z,1008.76
2019-03-27T05:31:19.162Z,1008.78
2019-03-27T05:32:19.116Z,1008.77
2019-03-27T05:33:19.116Z,1008.82
2019-03-27T05:34:19.100Z,1008.84
2019-03-27T05:35:19.078Z,1008.84
2019-03-27T05:36:19.101Z,1008.91
2019-03-27T05:37:19.066Z,1008.94
2019-03-27T05:38:19.049Z,1008.96
2019-03-27T05:39:19.053Z,1008.91
2019-03-27T05:40:19.023Z,1008.91
2019-03-27T05:41:19.051Z,1008.86
2019-03-27T05:42:19.014Z,1008.87
2019-03-27T05:43:18.989Z,1008.84
2019-03-27T05:44:18.976Z,1008.83
2019-03-27T05:45:18.966Z,1008.88
2019-03-27T05:46:18.999Z,1008.87
2019-03-27T05:47:18.992Z,1008.88
2019-03-27T05:48:18.949Z,1008.90
2019-03-27T05:49:18.923Z,1008.95
2019-03-27T05:50:18.949Z,1008.96
2019-03-27T05:51:18.958Z,1008.91
2019-03-27T05:52:18.897Z,1008.98
2019-03-27T05:53:18.882Z,1008.95
2019-03-27T05:54:18.873Z,1008.90
2019-03-27T05:55:18.868Z,1008.91
2019-03-27T05:56:18.898Z,1008.92
2019-03-27T05:57:18.846Z,1008.94
2019-03-27T05:58:18.831Z,1008.94
2019-03-27T05:59:18.830Z,1008.96
2019-03-27T06:00:18.801Z,1008.92
2019-03-27T06:01:18.823Z,1008.97
2019-03-27T06:02:18.792Z,1009.05
2019-03-27T06:03:18.793Z,1008.98
2019-03-27T06:04:18.771Z,1008.99
2019-03-27T06:05:18.759Z,1009.00
2019-03-27T06:06:18.787Z,1008.99
2019-03-27T06:07:18.731Z,1008.98
2019-03-27T06:08:18.722Z,1008.97
2019-03-27T06:09:18.711Z,1009.01
2019-03-27T06:10:18.709Z,1009.07
2019-03-27T06:11:18.711Z,1009.04
2019-03-27T06:12:18.679Z,1009.01
2019-03-27T06:13:18.672Z,1009.08
2019-03-27T06:14:18.673Z,1009.12
2019-03-27T06:15:18.660Z,1009.09
2019-03-27T06:16:18.653Z,1009.13
2019-03-27T06:17:18.628Z,1009.09
2019-03-27T06:18:18.629Z,1009.10
2019-03-27T06:19:18.615Z,1009.15
2019-03-27T06:20:18.659Z,1009.10
2019-03-27T06:21:18.614Z,1009.09
2019-03-27T06:22:18.594Z,1009.09
2019-03-27T06:23:18.566Z,1009.13
2019-03-27T06:24:18.561Z,1009.14
2019-03-27T06:25:18.546Z,1009.17
2019-03-27T06:26:18.586Z,1009.15
2019-03-27T06:27:18.521Z,1009.23
2019-03-27T06:28:18.509Z,1009.28
2019-03-27T06:29:18.490Z,1009.23
2019-03-27T06:30:18.509Z,1009.31
2019-03-27T06:31:18.511Z,1009.25
2019-03-27T06:32:18.466Z,1009.30
2019-03-27T06:33:18.450Z,1009.28
2019-03-27T06:34:18.444Z,1009.23
2019-03-27T06:35:20.196Z,1009.32
2019-03-27T06:36:18.456Z,1009.30
2019-03-27T06:37:18.449Z,1009.33
2019-03-27T06:38:18.408Z,1009.31
2019-03-27T06:39:18.401Z,1009.31
2019-03-27T06:40:18.392Z,1009.34
2019-03-27T06:41:18.401Z,1009.34
2019-03-27T06:42:18.361Z,1009.26
2019-03-27T06:43:18.410Z,1009.33
2019-03-27T06:44:18.331Z,1009.30
2019-03-27T06:45:18.319Z,1009.33
2019-03-27T06:46:18.421Z,1009.32
2019-03-27T06:47:18.365Z,1009.36
2019-03-27T06:48:26.062Z,1009.42
2019-03-27T06:49:19.277Z,1009.37
2019-03-27T06:50:18.269Z,1009.32
2019-03-27T06:51:18.251Z,1009.34
2019-03-27T06:52:18.262Z,1009.34
2019-03-27T06:53:18.249Z,1009.32
2019-03-27T06:54:18.220Z,1009.37
2019-03-27T06:55:18.247Z,1009.35
2019-03-27T06:56:18.204Z,1009.36
2019-03-27T06:57:18.216Z,1009.39
2019-03-27T06:58:18.285Z,1009.45
2019-03-27T06:59:18.168Z,1009.35
2019-03-27T07:00:18.194Z,1009.43
2019-03-27T07:01:18.160Z,1009.38
2019-03-27T07:02:18.161Z,1009.42
2019-03-27T07:03:18.120Z,1009.36
2019-03-27T07:04:18.115Z,1009.37
2019-03-27T07:05:18.112Z,1009.43
2019-03-27T07:06:18.107Z,1009.35
2019-03-27T07:07:18.112Z,1009.46
2019-03-27T07:08:18.071Z,1009.42
2019-03-27T07:09:18.063Z,1009.49
2019-03-27T07:10:18.041Z,1009.53
2019-03-27T07:11:18.053Z,1009.58
2019-03-27T07:12:21.305Z,1009.51
2019-03-27T07:13:18.035Z,1009.56
2019-03-27T07:14:18.037Z,1009.56
2019-03-27T07:15:17.994Z,1009.50
2019-03-27T07:16:17.982Z,1009.49
2019-03-27T07:17:18.001Z,1009.48
2019-03-27T07:18:17.977Z,1009.47
2019-03-27T07:19:17.968Z,1009.51
2019-03-27T07:20:17.937Z,1009.52
2019-03-27T07:21:17.931Z,1009.58
2019-03-27T07:22:17.948Z,1009.61
2019-03-27T07:23:17.913Z,1009.64
2019-03-27T07:24:17.912Z,1009.66
2019-03-27T07:25:17.904Z,1009.66
2019-03-27T07:26:17.871Z,1009.68
2019-03-27T07:27:17.894Z,1009.71
2019-03-27T07:28:17.875Z,1009.69
2019-03-27T07:29:19.166Z,1009.68
2019-03-27T07:30:17.854Z,1009.65
2019-03-27T07:31:17.899Z,1009.76
2019-03-27T07:32:17.845Z,1009.78
2019-03-27T07:33:17.830Z,1009.77
2019-03-27T07:34:17.784Z,1009.70
2019-03-27T07:35:17.777Z,1009.69
2019-03-27T07:36:17.781Z,1009.69
2019-03-27T07:37:17.787Z,1009.74
2019-03-27T07:38:17.737Z,1009.72
2019-03-27T07:39:17.743Z,1009.74
2019-03-27T07:40:17.780Z,1009.80
2019-03-27T07:41:17.727Z,1009.85
2019-03-27T07:42:18.619Z,1009.88
2019-03-27T07:43:17.723Z,1009.90
2019-03-27T07:44:17.739Z,1009.79
2019-03-27T07:45:17.681Z,1009.74
2019-03-27T07:46:17.679Z,1009.77
2019-03-27T07:47:17.657Z,1009.77
2019-03-27T07:48:17.674Z,1009.86
2019-03-27T07:49:17.646Z,1009.77
2019-03-27T07:50:17.679Z,1009.85
2019-03-27T07:51:17.620Z,1009.89
2019-03-27T07:52:17.590Z,1009.86
2019-03-27T07:53:17.606Z,1009.84
2019-03-27T07:54:17.580Z,1009.84
2019-03-27T07:55:19.490Z,1009.90
2019-03-27T07:56:17.556Z,1009.84
2019-03-27T07:57:17.531Z,1009.90
2019-03-27T07:58:17.555Z,1009.89
2019-03-27T07:59:17.525Z,1009.86
2019-03-27T08:00:17.536Z,1009.81
2019-03-27T08:01:17.497Z,1009.90
2019-03-27T08:02:17.497Z,1009.90
2019-03-27T08:03:17.531Z,1009.88
2019-03-27T08:04:17.493Z,1009.87
2019-03-27T08:05:17.454Z,1009.88
2019-03-27T08:06:17.460Z,1009.96
2019-03-27T08:07:26.857Z,1009.86
2019-03-27T08:08:18.505Z,1009.76
2019-03-27T08:09:17.403Z,1009.77
2019-03-27T08:10:17.401Z,1009.80
2019-03-27T08:11:17.419Z,1009.81
2019-03-27T08:12:17.370Z,1009.71
2019-03-27T08:13:17.405Z,1009.80
2019-03-27T08:14:17.359Z,1009.78
2019-03-27T08:15:17.335Z,1009.80
2019-03-27T08:16:17.343Z,1009.74
2019-03-27T08:17:17.334Z,1009.80
2019-03-27T08:18:17.332Z,1009.77
2019-03-27T08:19:17.303Z,1009.78
2019-03-27T08:20:17.306Z,1009.76
2019-03-27T08:21:17.281Z,1009.82
2019-03-27T08:22:17.263Z,1009.78
2019-03-27T08:23:17.296Z,1009.76
2019-03-27T08:24:17.314Z,1009.67
2019-03-27T08:25:17.257Z,1009.75
2019-03-27T08:26:17.230Z,1009.86
2019-03-27T08:27:17.263Z,1009.95
2019-03-27T08:28:17.238Z,1009.86
2019-03-27T08:29:17.180Z,1009.97
2019-03-27T08:30:17.184Z,1010.00
2019-03-27T08:31:17.170Z,1009.90
2019-03-27T08:32:17.164Z,1009.96
2019-03-27T08:33:17.182Z,1009.82
2019-03-27T08:34:17.137Z,1009.84
2019-03-27T08:35:17.140Z,1009.78
2019-03-27T08:36:17.126Z,1009.92
2019-03-27T08:37:17.106Z,1009.88
2019-03-27T08:38:17.120Z,1010.03
2019-03-27T08:39:17.091Z,1010.05
2019-03-27T08:40:17.077Z,1009.74
2019-03-27T08:41:17.059Z,1009.91
2019-03-27T08:42:17.062Z,1009.92
2019-03-27T08:43:21.529Z,1009.77
2019-03-27T08:44:18.098Z,1009.78
2019-03-27T08:45:17.014Z,1009.80
2019-03-27T08:46:17.041Z,1009.83
2019-03-27T08:47:17.053Z,1009.86
2019-03-27T08:48:17.020Z,1009.86
2019-03-27T08:49:22.147Z,1009.91
2019-03-27T08:50:17.968Z,1009.85
2019-03-27T08:51:16.984Z,1009.87
2019-03-27T08:52:16.970Z,1009.89
2019-03-27T08:53:16.959Z,1009.97
2019-03-27T08:54:16.964Z,1009.91
2019-03-27T08:55:16.910Z,1009.90
2019-03-27T08:56:16.899Z,1009.87
2019-03-27T08:57:16.910Z,1009.83
2019-03-27T08:58:16.907Z,1009.86
2019-03-27T08:59:16.882Z,1009.90
2019-03-27T09:00:16.868Z,1009.86
2019-03-27T09:01:16.857Z,1009.91
2019-03-27T09:02:16.830Z,1009.98
2019-03-27T09:03:16.836Z,1009.96
2019-03-27T09:04:16.823Z,1009.99
2019-03-27T09:05:16.809Z,1009.97
2019-03-27T09:06:16.838Z,1010.07
2019-03-27T09:07:16.803Z,1010.08
2019-03-27T09:08:16.765Z,1010.08
2019-03-27T09:09:16.769Z,1010.22
2019-03-27T09:10:16.769Z,1010.18
2019-03-27T09:11:16.778Z,1010.10
2019-03-27T09:12:16.743Z,1010.27
2019-03-27T09:13:16.718Z,1010.19
2019-03-27T09:14:16.719Z,1010.09
2019-03-27T09:15:16.688Z,1010.12
2019-03-27T09:16:16.705Z,1010.34
2019-03-27T09:17:16.676Z,1010.38
2019-03-27T09:18:17.087Z,1010.36
2019-03-27T09:19:16.662Z,1010.38
2019-03-27T09:20:16.652Z,1010.30
2019-03-27T09:21:16.654Z,1010.30
2019-03-27T09:22:16.625Z,1010.12
2019-03-27T09:23:16.596Z,1010.05
2019-03-27T09:24:16.594Z,1010.08
2019-03-27T09:25:16.636Z,1010.12
2019-03-27T09:26:16.607Z,1010.11
2019-03-27T09:27:16.586Z,1010.06
2019-03-27T09:28:28.712Z,1010.28
2019-03-27T09:29:28.765Z,1010.32
2019-03-27T09:30:28.799Z,1010.09
2019-03-27T09:31:28.896Z,1010.11
2019-03-27T09:32:28.899Z,1010.06
2019-03-27T09:33:28.952Z,1010.21
2019-03-27T09:34:29.006Z,1010.26
2019-03-27T09:35:53.459Z,1010.06
2019-03-27T09:36:53.518Z,1010.13
2019-03-27T09:43:25.291Z,1010.18
2019-03-27T09:44:25.227Z,1010.33
2019-03-27T09:45:25.188Z,1010.28
2019-03-27T09:46:25.170Z,1010.28
2019-03-27T09:47:25.127Z,1010.19
2019-03-27T09:48:25.199Z,1010.23
2019-03-27T09:49:25.037Z,1010.22
2019-03-27T09:50:24.983Z,1010.23
2019-03-27T09:51:24.969Z,1010.28
2019-03-27T09:52:24.918Z,1010.21
2019-03-27T09:53:24.896Z,1010.25
2019-03-27T09:54:24.844Z,1010.21
2019-03-27T09:55:24.813Z,1010.22
2019-03-27T09:56:24.820Z,1010.19
2019-03-27T09:57:24.788Z,1010.21
2019-03-27T09:58:24.812Z,1010.16
2019-03-27T09:59:24.729Z,1010.22
2019-03-27T10:00:24.702Z,1010.20
2019-03-27T10:01:24.774Z,1010.19
2019-03-27T10:02:24.693Z,1010.18
2019-03-27T10:03:24.686Z,1010.20
2019-03-27T10:04:24.658Z,1010.23
2019-03-27T10:05:24.687Z,1010.13
2019-03-27T10:06:24.731Z,1010.27
2019-03-27T10:07:24.662Z,1010.30
2019-03-27T10:08:24.642Z,1010.30
2019-03-27T10:09:24.619Z,1010.23
2019-03-27T10:10:24.698Z,1010.17
2019-03-27T10:11:24.762Z,1010.11
2019-03-27T10:12:24.789Z,1010.07
2019-03-27T10:13:24.844Z,1010.09
2019-03-27T10:14:24.887Z,1010.13
2019-03-27T10:15:24.941Z,1010.13
2019-03-27T10:16:25.019Z,1010.18
2019-03-27T10:17:25.046Z,1010.16
2019-03-27T10:18:25.103Z,1010.20
2019-03-27T10:19:25.152Z,1010.10
